This is the latest recevied weather packets stored in our database for station/object N6RDS. If no packets are shown the sender has not sent any weather packets the latest 10 day(s).
| Time | Temp. | Humidity | Pressure | Rain* | Wind** | Luminosity | Snow |
|---|---|---|---|---|---|---|---|
| 1777993479 | 7.78° C | 61% | 1019.5 hPa | 0 mm | - | 67 W/m² | - |
| 1777993179 | 7.78° C | 62% | 1019.5 hPa | 0 mm | - | 82 W/m² | - |
| 1777992877 | 7.22° C | 63% | 1019.5 hPa | 0 mm | - | 75 W/m² | - |
| 1777992575 | 7.22° C | 63% | 1019.4 hPa | 0 mm | - | 111 W/m² | - |
| 1777992273 | 6.67° C | 64% | 1019.5 hPa | 0 mm | - | 132 W/m² | - |
| 1777991970 | 7.78° C | 63% | 1019.5 hPa | 0 mm | - | 105 W/m² | - |
| 1777991667 | 8.33° C | 59% | 1019.5 hPa | 0 mm | - | 183 W/m² | - |
| 1777991364 | 7.78° C | 63% | 1019.5 hPa | 0 mm | - | 215 W/m² | - |
| 1777991062 | 6.11° C | 68% | 1019.7 hPa | 0 mm | - | 200 W/m² | - |
| 1777990759 | 6.11° C | 69% | 1019.6 hPa | 0 mm | - | 62 W/m² | - |
| 1777990456 | 6.67° C | 69% | 1019.5 hPa | 0 mm | - | 63 W/m² | - |
| 1777989849 | 6.67° C | 70% | 1019.5 hPa | 0 mm | - | 49 W/m² | - |
| 1777989546 | 6.11° C | 72% | 1019.5 hPa | 0 mm | - | 99 W/m² | - |
| 1777989243 | 5.56° C | 72% | 1019.4 hPa | 0 mm | - | 62 W/m² | - |
| 1777988939 | 5.56° C | 72% | 1019.5 hPa | 0 mm | - | 62 W/m² | - |
| 1777988630 | 5° C | 73% | 1019.2 hPa | 0 mm | - | 37 W/m² | - |
| 1777988326 | 5° C | 74% | 1019.6 hPa | 0 mm | - | 47 W/m² | - |
| 1777988023 | 5° C | 73% | 1019.2 hPa | 0 mm | - | 38 W/m² | - |
| 1777987719 | 5° C | 73% | 1019.2 hPa | 0 mm | - | 29 W/m² | - |
| 1777987417 | 4.44° C | 73% | 1019.1 hPa | 0 mm | - | 30 W/m² | - |
| 1777987113 | 4.44° C | 73% | 1019.2 hPa | 0 mm | - | 26 W/m² | - |
| 1777986811 | 5° C | 73% | 1019 hPa | 0 mm | - | 22 W/m² | - |
| 1777986509 | 4.44° C | 73% | 1019.2 hPa | 0 mm | - | 18 W/m² | - |
| 1777986207 | 4.44° C | 73% | 1019 hPa | 0 mm | - | 13 W/m² | - |
| 1777985904 | 4.44° C | 72% | 1019 hPa | 0 mm | - | 15 W/m² | - |
* Rain latest hour (hover to see other rain measurements)
** Current wind speed in m/s (hover to see current wind gust speed)